עמוד ראשי
METAR-TAF:

METAR-TAF

שדות תעופה :

Loei, תאילנד

קו רוחב: 17-27N, קו אורך: 101-44E, גובה: 253מטר

תצפית מזג אוויר נוכחית

הדו"ח נערך לפני 1 שעות ו 13דקות, בשעה 03:00 UTC
רוח 6קשר מכיוון מערב/צפון-מערב, משתנה בין מערב/דרום-מערב ו צפון/צפון-מערב
טמפרטורת 30 צלסיוס
לחות 66%
לחץ 1002 hPa
ראות 10 קילומטר או יותר
עננים בינוניים בגובה 3000רגל

METAR: VTUL 250300Z 29006KT 250V330 9999 BKN030 30/23 Q1002 NOSIG

זמן: 11:13 (04:13 UTC)

תחזית

הדו"ח נערך לפני 5 שעות ו 13דקות, בשעה 23:00 UTC
תחזית בתוקף מ 25 ב 00 UTC עד 25 ב 24 UTC
רוח 5קשר מכיוון מערב
ראות: 8000מטר
עננים פזורים בגובה 2500רגל
זמנית מ -
25 ב 07 UTC עד 25 ב 12 UTC
רוח 15קשר עם כיוונים משתנים
ראות: 4000מטר
מעט עננים בגובה 1800רגל , קומולונימבוס.
עננים בינוניים בגובה 2500רגל
סופת רעמים, גשם,

TAF: VTUL 242300Z 2500/2524 27005KT 8000 SCT025 TEMPO 2507/2512 VRB15KT 4000 TSRA FEW018CB BKN025

תצפיות ותחזיות מזג אוויר לגבי יותר מ- 4,000 שדות תעופה ברחבי העולם. דוחות METAR ו- TAF.

התחנות הזמינות מסומנות בנקודות צהובות ואדומות על גבי המפה.

העבר את העכבר לנקודה הצבעונית על מנת לראות את שם התחנה.

לאחר מכן, לחץ כדי לראות את תוכן ואת תחזיות מזג האוויר.

כדי לשנות את המפה: לחץ על הכפתורים הירוקים עם הפלוס השחור כדי להתקרב; על הכפתור הירוק עם המקף כדי להתרחק; או בחיצים הירוקים למפות סמוכות.


METAR-TAF: